Elysium — WDH8659 — position and weather

sailwx.info

Track history (hours):
 
Tides and Currents Weather Stations Pressure Air Temp Water Temp Dewpoint Dewpoint Depression Visibility Wind Speed Wind Dir Waves Ship Positions

Elysium

Owner: Schultz, Beverly A, Edmonds, WA. More information available from US FCC via Universal Licensing System and Coast Guard Vessel Documentation Center.

Last reported at 2018-Feb-20 21:26 UTC. Time now 2018-Feb-23 08:52 UTC.
Position N 48°00' W 122°13'.

Length 13 m.

Type: Sailing vessel. MMSI: 367660260.

Date/timePositionNaut miles runAvg speedWind from/ knotsBaromVisibWave heightAir tempDewpointWater temp
2018-Feb-20 21:26N 48°00' W 122°13'3 4.6
2018-Feb-20 20:48N 47°58' W 122°17'2 5.9
2018-Feb-20 20:30N 47°57' W 122°19'3 5.1
2018-Feb-20 20:00N 47°55' W 122°20'2 4.7
2018-Feb-20 19:30N 47°53' W 122°22'3 5.9
2018-Feb-20 18:59N 47°50' W 122°24'3 6.9
2018-Feb-20 18:30N 47°47' W 122°25'4 7.4
2018-Feb-20 18:00N 47°43' W 122°26'4 7.2
2018-Feb-20 17:30N 47°39' W 122°27'3 7.1
2018-Feb-20 17:00N 47°37' W 122°23'1 0.0
2018-Feb-18 21:43N 47°37' W 122°21'1 5.2
2018-Feb-18 21:30N 47°37' W 122°23'4 5.8
2018-Feb-18 20:50N 47°40' W 122°27'2 7.4
2018-Feb-18 20:30N 47°42' W 122°25'4 7.1
2018-Feb-18 20:00N 47°46' W 122°25'3 6.4
2018-Feb-18 19:30N 47°49' W 122°24'4 8.1
2018-Feb-18 19:00N 47°52' W 122°22'4 8.6
2018-Feb-18 18:29N 47°56' W 122°19'4 7.2
2018-Feb-18 18:00N 47°59' W 122°15'  
Track history (hours):
 
Tides and Currents Weather Stations Pressure Air Temp Water Temp Dewpoint Dewpoint Depression Visibility Wind Speed Wind Dir Waves Ship Positions

Elysium

Owner: Schultz, Beverly A, Edmonds, WA. More information available from US FCC via Universal Licensing System and Coast Guard Vessel Documentation Center.

Last reported at 2018-Feb-20 21:26 UTC. Time now 2018-Feb-23 08:52 UTC.
Position N 48°00' W 122°13'.

Length 13 m.

Type: Sailing vessel. MMSI: 367660260.

Date/timePositionNaut miles runAvg speedWind from/ knotsBaromVisibWave heightAir tempDewpointWater temp
2018-Feb-20 21:26N 48°00' W 122°13'3 4.6
2018-Feb-20 20:48N 47°58' W 122°17'2 5.9
2018-Feb-20 20:30N 47°57' W 122°19'3 5.1
2018-Feb-20 20:00N 47°55' W 122°20'2 4.7
2018-Feb-20 19:30N 47°53' W 122°22'3 5.9
2018-Feb-20 18:59N 47°50' W 122°24'3 6.9
2018-Feb-20 18:30N 47°47' W 122°25'4 7.4
2018-Feb-20 18:00N 47°43' W 122°26'4 7.2
2018-Feb-20 17:30N 47°39' W 122°27'3 7.1
2018-Feb-20 17:00N 47°37' W 122°23'1 0.0
2018-Feb-18 21:43N 47°37' W 122°21'1 5.2
2018-Feb-18 21:30N 47°37' W 122°23'4 5.8
2018-Feb-18 20:50N 47°40' W 122°27'2 7.4
2018-Feb-18 20:30N 47°42' W 122°25'4 7.1
2018-Feb-18 20:00N 47°46' W 122°25'3 6.4
2018-Feb-18 19:30N 47°49' W 122°24'4 8.1
2018-Feb-18 19:00N 47°52' W 122°22'4 8.6
2018-Feb-18 18:29N 47°56' W 122°19'4 7.2
2018-Feb-18 18:00N 47°59' W 122°15'  

Dump ship's entire track history